sensor_id;sensor_type;location;lat;lon;timestamp;P1;durP1;ratioP1;P2;durP2;ratioP2
59681;SDS011;45548;39.530;-9.118;2022-10-16T08:05:05;1542.57;;;185.30;;
59681;SDS011;45548;39.530;-9.118;2022-10-16T08:07:31;662.75;;;172.80;;
59681;SDS011;45548;39.530;-9.118;2022-10-16T08:09:57;948.10;;;122.72;;
59681;SDS011;45548;39.530;-9.118;2022-10-16T08:12:23;1999.90;;;223.60;;
59681;SDS011;45548;39.530;-9.118;2022-10-16T08:14:50;647.50;;;126.15;;
59681;SDS011;45548;39.530;-9.118;2022-10-16T08:17:16;631.63;;;132.48;;
59681;SDS011;45548;39.530;-9.118;2022-10-16T08:19:50;1520.43;;;190.73;;
59681;SDS011;45548;39.530;-9.118;2022-10-16T08:22:16;1999.90;;;311.33;;
59681;SDS011;45548;39.530;-9.118;2022-10-16T08:24:43;1924.30;;;225.57;;
59681;SDS011;45548;39.530;-9.118;2022-10-16T08:27:09;1470.00;;;151.82;;
59681;SDS011;45548;39.530;-9.118;2022-10-16T08:30:34;1288.53;;;190.15;;
59681;SDS011;45548;39.530;-9.118;2022-10-16T08:33:58;1995.10;;;204.65;;
59681;SDS011;45548;39.530;-9.118;2022-10-16T08:37:22;1429.88;;;161.00;;
59681;SDS011;45548;39.530;-9.118;2022-10-16T08:40:46;1999.90;;;275.92;;
59681;SDS011;45548;39.530;-9.118;2022-10-16T08:44:18;1999.90;;;284.35;;
59681;SDS011;45548;39.530;-9.118;2022-10-16T08:54:47;1999.90;;;252.63;;
59681;SDS011;45548;39.530;-9.118;2022-10-16T08:58:16;812.60;;;190.50;;
59681;SDS011;45548;39.530;-9.118;2022-10-16T09:01:44;1704.45;;;266.33;;
59681;SDS011;45548;39.530;-9.118;2022-10-16T09:16:42;1999.90;;;301.52;;
59681;SDS011;45548;39.530;-9.118;2022-10-16T09:20:17;1999.90;;;344.40;;
59681;SDS011;45548;39.530;-9.118;2022-10-16T09:24:16;1892.78;;;192.20;;
59681;SDS011;45548;39.530;-9.118;2022-10-16T09:27:45;1999.90;;;281.90;;
59681;SDS011;45548;39.530;-9.118;2022-10-16T09:31:13;1999.90;;;209.20;;
59681;SDS011;45548;39.530;-9.118;2022-10-16T09:34:42;1169.13;;;132.00;;
59681;SDS011;45548;39.530;-9.118;2022-10-16T09:38:24;1999.90;;;291.38;;
59681;SDS011;45548;39.530;-9.118;2022-10-16T09:41:49;941.80;;;95.65;;
59681;SDS011;45548;39.530;-9.118;2022-10-16T09:45:22;1999.90;;;325.65;;
59681;SDS011;45548;39.530;-9.118;2022-10-16T09:49:00;1999.90;;;274.80;;
59681;SDS011;45548;39.530;-9.118;2022-10-16T09:52:27;1999.90;;;313.30;;
59681;SDS011;45548;39.530;-9.118;2022-10-16T09:56:05;1999.90;;;278.70;;
59681;SDS011;45548;39.530;-9.118;2022-10-16T09:59:31;1984.85;;;252.82;;
59681;SDS011;45548;39.530;-9.118;2022-10-16T10:02:55;1999.90;;;272.45;;
59681;SDS011;45548;39.530;-9.118;2022-10-16T10:06:27;1999.90;;;264.48;;
59681;SDS011;45548;39.530;-9.118;2022-10-16T10:09:52;1999.90;;;244.13;;
59681;SDS011;45548;39.530;-9.118;2022-10-16T10:13:21;1999.90;;;264.33;;
59681;SDS011;45548;39.530;-9.118;2022-10-16T10:23:44;1999.90;;;280.42;;
59681;SDS011;45548;39.530;-9.118;2022-10-16T10:27:31;1326.93;;;126.80;;
59681;SDS011;45548;39.530;-9.118;2022-10-16T10:31:20;1630.80;;;166.77;;
59681;SDS011;45548;39.530;-9.118;2022-10-16T10:41:54;961.38;;;71.70;;
59681;SDS011;45548;39.530;-9.118;2022-10-16T10:45:42;1999.90;;;278.30;;
59681;SDS011;45548;39.530;-9.118;2022-10-16T10:52:58;1533.18;;;132.20;;
59681;SDS011;45548;39.530;-9.118;2022-10-16T11:07:43;1246.03;;;133.25;;
59681;SDS011;45548;39.530;-9.118;2022-10-16T11:11:29;272.77;;;52.05;;
59681;SDS011;45548;39.530;-9.118;2022-10-16T11:15:07;1099.13;;;118.25;;
59681;SDS011;45548;39.530;-9.118;2022-10-16T11:18:42;448.75;;;60.95;;
59681;SDS011;45548;39.530;-9.118;2022-10-16T11:22:30;366.75;;;58.13;;
59681;SDS011;45548;39.530;-9.118;2022-10-16T11:26:02;1032.85;;;99.30;;
59681;SDS011;45548;39.530;-9.118;2022-10-16T11:29:31;1307.78;;;126.20;;
59681;SDS011;45548;39.530;-9.118;2022-10-16T11:36:42;1444.93;;;133.52;;
59681;SDS011;45548;39.530;-9.118;2022-10-16T11:47:48;277.75;;;52.78;;
59681;SDS011;45548;39.530;-9.118;2022-10-16T11:58:17;1015.25;;;141.77;;
59681;SDS011;45548;39.530;-9.118;2022-10-16T12:01:54;1064.22;;;140.20;;
59681;SDS011;45548;39.530;-9.118;2022-10-16T12:05:36;1999.90;;;274.80;;
59681;SDS011;45548;39.530;-9.118;2022-10-16T12:09:17;1178.53;;;161.10;;
59681;SDS011;45548;39.530;-9.118;2022-10-16T12:12:48;1999.90;;;216.48;;
59681;SDS011;45548;39.530;-9.118;2022-10-16T12:19:57;718.38;;;109.70;;
59681;SDS011;45548;39.530;-9.118;2022-10-16T12:23:29;892.28;;;108.80;;
59681;SDS011;45548;39.530;-9.118;2022-10-16T12:27:00;1508.38;;;129.15;;
59681;SDS011;45548;39.530;-9.118;2022-10-16T12:30:32;969.45;;;148.90;;
59681;SDS011;45548;39.530;-9.118;2022-10-16T12:34:14;1999.90;;;261.65;;
59681;SDS011;45548;39.530;-9.118;2022-10-16T12:37:50;1999.90;;;314.58;;
59681;SDS011;45548;39.530;-9.118;2022-10-16T12:41:26;1999.90;;;240.65;;
59681;SDS011;45548;39.530;-9.118;2022-10-16T12:44:50;1999.90;;;288.83;;
59681;SDS011;45548;39.530;-9.118;2022-10-16T12:48:23;1647.30;;;214.30;;
59681;SDS011;45548;39.530;-9.118;2022-10-16T12:51:55;1999.90;;;311.20;;
59681;SDS011;45548;39.530;-9.118;2022-10-16T12:55:20;1999.90;;;336.30;;
59681;SDS011;45548;39.530;-9.118;2022-10-16T12:58:53;1999.90;;;285.70;;
59681;SDS011;45548;39.530;-9.118;2022-10-16T13:09:43;1999.90;;;257.98;;
59681;SDS011;45548;39.530;-9.118;2022-10-16T13:14:05;1999.90;;;264.67;;
59681;SDS011;45548;39.530;-9.118;2022-10-16T13:17:42;1999.90;;;362.98;;
59681;SDS011;45548;39.530;-9.118;2022-10-16T13:21:33;1993.80;;;228.70;;
59681;SDS011;45548;39.530;-9.118;2022-10-16T13:28:28;1235.15;;;162.27;;
59681;SDS011;45548;39.530;-9.118;2022-10-16T13:31:55;944.53;;;194.63;;
59681;SDS011;45548;39.530;-9.118;2022-10-16T13:35:27;1999.90;;;314.00;;
59681;SDS011;45548;39.530;-9.118;2022-10-16T13:42:46;1999.90;;;253.48;;
59681;SDS011;45548;39.530;-9.118;2022-10-16T13:46:16;1999.90;;;265.27;;
59681;SDS011;45548;39.530;-9.118;2022-10-16T13:49:44;1999.90;;;273.08;;
59681;SDS011;45548;39.530;-9.118;2022-10-16T13:53:14;1999.90;;;271.90;;
59681;SDS011;45548;39.530;-9.118;2022-10-16T13:56:39;1999.90;;;237.30;;
59681;SDS011;45548;39.530;-9.118;2022-10-16T14:00:05;1999.90;;;302.60;;
59681;SDS011;45548;39.530;-9.118;2022-10-16T14:03:43;1665.40;;;205.32;;
59681;SDS011;45548;39.530;-9.118;2022-10-16T14:07:13;1976.40;;;204.43;;
59681;SDS011;45548;39.530;-9.118;2022-10-16T14:10:38;1999.90;;;248.43;;
59681;SDS011;45548;39.530;-9.118;2022-10-16T14:14:10;1999.90;;;223.27;;
59681;SDS011;45548;39.530;-9.118;2022-10-16T14:17:43;1427.68;;;145.70;;
59681;SDS011;45548;39.530;-9.118;2022-10-16T14:21:13;1999.90;;;289.00;;
59681;SDS011;45548;39.530;-9.118;2022-10-16T14:24:46;1999.90;;;315.92;;
59681;SDS011;45548;39.530;-9.118;2022-10-16T14:31:39;1999.90;;;235.75;;
59681;SDS011;45548;39.530;-9.118;2022-10-16T14:35:11;1999.90;;;331.85;;
59681;SDS011;45548;39.530;-9.118;2022-10-16T14:42:18;1999.90;;;210.95;;
59681;SDS011;45548;39.530;-9.118;2022-10-16T14:45:50;1999.90;;;332.45;;
59681;SDS011;45548;39.530;-9.118;2022-10-16T14:49:17;1962.85;;;160.40;;
59681;SDS011;45548;39.530;-9.118;2022-10-16T14:52:41;1999.90;;;217.10;;
59681;SDS011;45548;39.530;-9.118;2022-10-16T14:56:08;1999.90;;;231.50;;
59681;SDS011;45548;39.530;-9.118;2022-10-16T14:59:43;1167.85;;;157.35;;
59681;SDS011;45548;39.530;-9.118;2022-10-16T15:03:08;1987.40;;;190.90;;
59681;SDS011;45548;39.530;-9.118;2022-10-16T15:06:34;1999.90;;;294.85;;
59681;SDS011;45548;39.530;-9.118;2022-10-16T15:09:58;1705.00;;;145.93;;
59681;SDS011;45548;39.530;-9.118;2022-10-16T15:13:22;1999.90;;;290.77;;
59681;SDS011;45548;39.530;-9.118;2022-10-16T15:16:46;1999.90;;;298.52;;
59681;SDS011;45548;39.530;-9.118;2022-10-16T15:20:10;1999.90;;;326.80;;
59681;SDS011;45548;39.530;-9.118;2022-10-16T15:23:41;1999.90;;;300.50;;
59681;SDS011;45548;39.530;-9.118;2022-10-16T15:27:05;1999.90;;;194.80;;
59681;SDS011;45548;39.530;-9.118;2022-10-16T15:30:29;1999.90;;;196.20;;
59681;SDS011;45548;39.530;-9.118;2022-10-16T15:33:53;1999.90;;;247.48;;
59681;SDS011;45548;39.530;-9.118;2022-10-16T15:37:17;1998.70;;;174.60;;
59681;SDS011;45548;39.530;-9.118;2022-10-16T15:40:43;1784.10;;;134.00;;
59681;SDS011;45548;39.530;-9.118;2022-10-16T15:44:07;1999.90;;;205.48;;
59681;SDS011;45548;39.530;-9.118;2022-10-16T15:47:33;1271.80;;;125.75;;
59681;SDS011;45548;39.530;-9.118;2022-10-16T15:50:58;1999.90;;;211.20;;
59681;SDS011;45548;39.530;-9.118;2022-10-16T15:54:22;962.80;;;94.90;;
59681;SDS011;45548;39.530;-9.118;2022-10-16T15:57:46;1944.80;;;183.05;;
59681;SDS011;45548;39.530;-9.118;2022-10-16T16:01:10;1999.90;;;299.35;;
59681;SDS011;45548;39.530;-9.118;2022-10-16T16:04:34;1948.45;;;168.93;;
59681;SDS011;45548;39.530;-9.118;2022-10-16T16:08:02;1999.90;;;218.75;;
59681;SDS011;45548;39.530;-9.118;2022-10-16T16:11:26;1999.90;;;187.75;;
59681;SDS011;45548;39.530;-9.118;2022-10-16T16:14:50;1999.90;;;303.65;;
59681;SDS011;45548;39.530;-9.118;2022-10-16T16:18:14;1999.90;;;386.80;;
59681;SDS011;45548;39.530;-9.118;2022-10-16T16:21:38;1241.28;;;140.18;;
59681;SDS011;45548;39.530;-9.118;2022-10-16T16:25:02;1197.40;;;142.60;;
59681;SDS011;45548;39.530;-9.118;2022-10-16T16:28:33;912.83;;;108.65;;
59681;SDS011;45548;39.530;-9.118;2022-10-16T16:31:58;1013.70;;;125.55;;
59681;SDS011;45548;39.530;-9.118;2022-10-16T16:35:22;1999.90;;;260.77;;
59681;SDS011;45548;39.530;-9.118;2022-10-16T16:38:46;1999.90;;;297.67;;
59681;SDS011;45548;39.530;-9.118;2022-10-16T16:42:10;539.33;;;165.80;;
59681;SDS011;45548;39.530;-9.118;2022-10-16T16:45:35;1954.65;;;189.68;;
59681;SDS011;45548;39.530;-9.118;2022-10-16T16:48:59;850.30;;;212.13;;
59681;SDS011;45548;39.530;-9.118;2022-10-16T16:52:24;778.17;;;143.90;;
59681;SDS011;45548;39.530;-9.118;2022-10-16T16:55:48;244.85;;;136.40;;
59681;SDS011;45548;39.530;-9.118;2022-10-16T16:59:16;615.78;;;328.52;;
59681;SDS011;45548;39.530;-9.118;2022-10-16T17:02:40;450.67;;;202.13;;
59681;SDS011;45548;39.530;-9.118;2022-10-16T17:06:07;264.20;;;144.88;;
59681;SDS011;45548;39.530;-9.118;2022-10-16T17:09:32;391.10;;;147.88;;
59681;SDS011;45548;39.530;-9.118;2022-10-16T17:12:56;299.40;;;114.90;;
59681;SDS011;45548;39.530;-9.118;2022-10-16T17:16:22;422.40;;;122.75;;
59681;SDS011;45548;39.530;-9.118;2022-10-16T17:19:48;1739.05;;;269.02;;
59681;SDS011;45548;39.530;-9.118;2022-10-16T17:23:13;717.85;;;213.20;;
59681;SDS011;45548;39.530;-9.118;2022-10-16T17:26:37;1984.38;;;301.55;;
59681;SDS011;45548;39.530;-9.118;2022-10-16T17:30:02;1575.72;;;225.50;;
59681;SDS011;45548;39.530;-9.118;2022-10-16T17:33:39;1999.90;;;391.60;;
59681;SDS011;45548;39.530;-9.118;2022-10-16T17:37:03;1999.90;;;401.42;;
59681;SDS011;45548;39.530;-9.118;2022-10-16T17:40:27;799.33;;;127.72;;
59681;SDS011;45548;39.530;-9.118;2022-10-16T17:43:52;1999.90;;;477.40;;
59681;SDS011;45548;39.530;-9.118;2022-10-16T17:47:16;1999.90;;;477.35;;
59681;SDS011;45548;39.530;-9.118;2022-10-16T17:50:40;1999.90;;;424.88;;
59681;SDS011;45548;39.530;-9.118;2022-10-16T17:54:05;1999.90;;;411.13;;
59681;SDS011;45548;39.530;-9.118;2022-10-16T17:57:29;1999.90;;;354.67;;
59681;SDS011;45548;39.530;-9.118;2022-10-16T18:00:53;1999.90;;;389.83;;
59681;SDS011;45548;39.530;-9.118;2022-10-16T18:04:17;1940.07;;;272.40;;
59681;SDS011;45548;39.530;-9.118;2022-10-16T18:07:41;1999.90;;;384.73;;
59681;SDS011;45548;39.530;-9.118;2022-10-16T18:11:05;1775.28;;;198.93;;
59681;SDS011;45548;39.530;-9.118;2022-10-16T18:14:30;1983.00;;;284.15;;
59681;SDS011;45548;39.530;-9.118;2022-10-16T18:17:54;1964.70;;;194.80;;
59681;SDS011;45548;39.530;-9.118;2022-10-16T18:21:18;1373.85;;;141.48;;
59681;SDS011;45548;39.530;-9.118;2022-10-16T18:24:42;990.72;;;111.72;;
59681;SDS011;45548;39.530;-9.118;2022-10-16T18:28:13;950.95;;;262.38;;
59681;SDS011;45548;39.530;-9.118;2022-10-16T18:31:37;640.90;;;159.07;;
59681;SDS011;45548;39.530;-9.118;2022-10-16T18:35:01;976.00;;;112.28;;
59681;SDS011;45548;39.530;-9.118;2022-10-16T18:38:27;1453.88;;;191.85;;
59681;SDS011;45548;39.530;-9.118;2022-10-16T18:41:51;1040.88;;;208.73;;
59681;SDS011;45548;39.530;-9.118;2022-10-16T18:45:17;576.28;;;100.70;;
59681;SDS011;45548;39.530;-9.118;2022-10-16T18:48:43;923.38;;;180.93;;
59681;SDS011;45548;39.530;-9.118;2022-10-16T18:52:08;864.67;;;215.00;;
59681;SDS011;45548;39.530;-9.118;2022-10-16T18:55:32;781.08;;;140.85;;
59681;SDS011;45548;39.530;-9.118;2022-10-16T18:59:00;225.20;;;65.53;;
59681;SDS011;45548;39.530;-9.118;2022-10-16T19:02:24;914.25;;;160.00;;
59681;SDS011;45548;39.530;-9.118;2022-10-16T19:05:48;1283.38;;;352.45;;
59681;SDS011;45548;39.530;-9.118;2022-10-16T19:09:14;600.05;;;124.45;;
59681;SDS011;45548;39.530;-9.118;2022-10-16T19:12:39;518.15;;;150.63;;
59681;SDS011;45548;39.530;-9.118;2022-10-16T19:16:04;395.05;;;138.82;;
59681;SDS011;45548;39.530;-9.118;2022-10-16T19:19:31;620.67;;;123.05;;
59681;SDS011;45548;39.530;-9.118;2022-10-16T19:22:56;624.70;;;177.57;;
59681;SDS011;45548;39.530;-9.118;2022-10-16T19:26:25;804.70;;;144.75;;
59681;SDS011;45548;39.530;-9.118;2022-10-16T19:29:49;558.15;;;221.18;;
59681;SDS011;45548;39.530;-9.118;2022-10-16T19:33:13;782.50;;;181.50;;
59681;SDS011;45548;39.530;-9.118;2022-10-16T19:36:37;574.45;;;209.40;;
59681;SDS011;45548;39.530;-9.118;2022-10-16T19:40:02;612.85;;;253.68;;
59681;SDS011;45548;39.530;-9.118;2022-10-16T19:43:33;528.63;;;141.52;;
59681;SDS011;45548;39.530;-9.118;2022-10-16T19:46:57;404.63;;;144.80;;
59681;SDS011;45548;39.530;-9.118;2022-10-16T19:50:22;238.25;;;96.22;;
59681;SDS011;45548;39.530;-9.118;2022-10-16T19:53:46;520.90;;;201.90;;
59681;SDS011;45548;39.530;-9.118;2022-10-16T19:57:10;364.30;;;173.23;;
59681;SDS011;45548;39.530;-9.118;2022-10-16T20:00:34;399.75;;;115.88;;
59681;SDS011;45548;39.530;-9.118;2022-10-16T20:03:58;321.08;;;146.27;;
59681;SDS011;45548;39.530;-9.118;2022-10-16T20:07:22;436.35;;;106.32;;
59681;SDS011;45548;39.530;-9.118;2022-10-16T20:10:50;401.42;;;120.07;;
59681;SDS011;45548;39.530;-9.118;2022-10-16T20:14:14;412.80;;;135.65;;
59681;SDS011;45548;39.530;-9.118;2022-10-16T20:17:38;280.42;;;133.25;;
59681;SDS011;45548;39.530;-9.118;2022-10-16T20:21:10;484.17;;;119.03;;
59681;SDS011;45548;39.530;-9.118;2022-10-16T20:24:34;666.10;;;139.45;;
59681;SDS011;45548;39.530;-9.118;2022-10-16T20:28:00;450.15;;;105.97;;
59681;SDS011;45548;39.530;-9.118;2022-10-16T20:31:25;669.63;;;196.02;;
59681;SDS011;45548;39.530;-9.118;2022-10-16T20:34:49;594.58;;;155.98;;
59681;SDS011;45548;39.530;-9.118;2022-10-16T20:38:15;331.38;;;169.63;;
59681;SDS011;45548;39.530;-9.118;2022-10-16T20:41:39;775.40;;;300.30;;
